Time;durP1;ratioP1;P1;durP2;ratioP2;P2;SDS_P1;SDS_P2;PMS_P1;PMS_P2;Temp;Humidity;BMP_temperature;BMP_pressure;BME280_temperature;BME280_humidity;BME280_pressure;Samples;Min_cycle;Max_cycle;Signal;HPM_P1;HPM_P2
2020/12/21 00:01:57;;;;;;;0.10;0.10;;;;;;;0.30;100.00;102463.80;1759724;81;21423;-49
2020/12/21 00:04:25;;;;;;;0.33;0.33;;;;;;;0.31;100.00;102461.95;1759713;80;21103;-48
2020/12/21 00:06:53;;;;;;;0.35;0.20;;;;;;;0.32;100.00;102459.59;1760156;80;21123;-48
2020/12/21 00:09:21;;;;;;;0.13;0.13;;;;;;;0.31;100.00;102468.17;1759310;80;21167;-50
2020/12/21 00:11:51;;;;;;;0.00;0.00;;;;;;;0.31;100.00;102463.30;1759446;81;21178;-48
2020/12/21 00:14:19;;;;;;;4.65;0.80;;;;;;;0.30;100.00;102461.12;1759837;80;21118;-47
2020/12/21 00:16:49;;;;;;;1.65;0.75;;;;;;;0.31;100.00;102461.45;1759759;81;21157;-48
2020/12/21 00:19:18;;;;;;;0.20;0.20;;;;;;;0.30;100.00;102453.05;1759615;80;21165;-48
2020/12/21 00:21:53;;;;;;;0.20;0.20;;;;;;;0.30;100.00;102449.02;1759777;81;21154;-47
2020/12/21 00:24:20;;;;;;;0.70;0.28;;;;;;;0.30;100.00;102446.33;1794752;79;21091;-48
2020/12/21 00:26:50;;;;;;;1.25;1.15;;;;;;;0.31;100.00;102443.97;1805512;79;21414;-48
2020/12/21 00:29:18;;;;;;;0.68;0.68;;;;;;;0.32;100.00;102443.45;1805441;79;21394;-50
2020/12/21 00:31:46;;;;;;;0.00;0.00;;;;;;;0.31;100.00;102443.97;1811152;79;21149;-48
2020/12/21 00:34:14;;;;;;;0.65;0.65;;;;;;;0.29;100.00;102436.56;1813754;79;21125;-47
2020/12/21 00:36:49;;;;;;;0.17;0.17;;;;;;;0.30;100.00;102442.30;1764305;81;21145;-48
2020/12/21 00:39:17;;;;;;;0.08;0.08;;;;;;;0.30;100.00;102446.33;1761946;81;21158;-48
2020/12/21 00:41:45;;;;;;;1.92;0.50;;;;;;;0.29;100.00;102441.94;1752292;81;21142;-49
2020/12/21 00:44:12;;;;;;;0.70;0.70;;;;;;;0.28;100.00;102449.67;1780384;80;21443;-48
2020/12/21 00:46:40;;;;;;;0.10;0.10;;;;;;;0.26;100.00;102450.33;1780696;80;21199;-49
2020/12/21 00:49:07;;;;;;;0.00;0.00;;;;;;;0.25;100.00;102452.70;1780563;80;21130;-47
2020/12/21 00:51:35;;;;;;;0.10;0.10;;;;;;;0.25;100.00;102445.98;1780622;80;21152;-51
2020/12/21 00:54:03;;;;;;;0.30;0.30;;;;;;;0.24;100.00;102452.34;1771759;80;21118;-47
2020/12/21 00:56:31;;;;;;;0.00;0.00;;;;;;;0.24;100.00;102448.30;1710360;83;21442;-47
2020/12/21 00:58:58;;;;;;;0.80;0.30;;;;;;;0.26;100.00;102455.71;1783014;78;21129;-50
2020/12/21 01:01:28;;;;;;;0.62;0.62;;;;;;;0.27;100.00;102455.20;1794493;79;21129;-48
2020/12/21 01:04:00;;;;;;;0.98;0.80;;;;;;;0.24;100.00;102460.41;1794900;78;21106;-48
2020/12/21 01:06:27;;;;;;;0.37;0.10;;;;;;;0.25;100.00;102457.20;1759256;81;21146;-47
2020/12/21 01:08:56;;;;;;;1.20;0.20;;;;;;;0.24;100.00;102453.69;1740454;81;21137;-48
2020/12/21 01:11:24;;;;;;;0.10;0.10;;;;;;;0.24;100.00;102453.69;1758915;81;21766;-48
2020/12/21 01:13:52;;;;;;;0.10;0.10;;;;;;;0.23;100.00;102452.02;1759376;80;21135;-48
2020/12/21 01:16:19;;;;;;;0.10;0.10;;;;;;;0.23;100.00;102453.86;1760214;80;21550;-48
2020/12/21 01:18:49;;;;;;;0.20;0.20;;;;;;;0.23;100.00;102449.83;1759480;80;21259;-47
2020/12/21 01:21:28;;;;;;;0.10;0.10;;;;;;;0.23;100.00;102452.02;1759129;81;21166;-49
2020/12/21 01:23:55;;;;;;;0.15;0.15;;;;;;;0.23;100.00;102452.02;1740274;82;21571;-49
2020/12/21 01:26:25;;;;;;;1.20;1.17;;;;;;;0.21;100.00;102451.33;1740349;82;21584;-49
2020/12/21 01:28:53;;;;;;;0.30;0.30;;;;;;;0.20;100.00;102452.34;1739746;82;21692;-48
2020/12/21 01:31:21;;;;;;;0.55;0.55;;;;;;;0.17;100.00;102454.85;1725084;82;21430;-49
2020/12/21 01:33:50;;;;;;;0.35;0.35;;;;;;;0.18;100.00;102461.06;1746057;82;21147;-48
2020/12/21 01:36:18;;;;;;;0.55;0.33;;;;;;;0.16;100.00;102463.07;1747072;82;21127;-48
2020/12/21 01:38:46;;;;;;;0.98;0.60;;;;;;;0.16;100.00;102461.22;1777025;80;21269;-50
2020/12/21 01:41:13;;;;;;;0.35;0.35;;;;;;;0.18;100.00;102465.94;1777111;80;21852;-47
2020/12/21 01:43:42;;;;;;;1.12;0.25;;;;;;;0.18;100.00;102454.34;1770054;80;21143;-48
2020/12/21 01:46:14;;;;;;;0.42;0.35;;;;;;;0.18;100.00;102454.34;1750819;81;21083;-48
2020/12/21 01:48:43;;;;;;;0.00;0.00;;;;;;;0.16;100.00;102453.66;1751906;80;21190;-48
2020/12/21 01:51:23;;;;;;;0.10;0.10;;;;;;;0.16;100.00;102455.00;1750793;81;21146;-48
2020/12/21 01:53:50;;;;;;;0.10;0.10;;;;;;;0.15;100.00;102450.14;1750872;80;21584;-48
2020/12/21 01:56:18;;;;;;;1.02;0.57;;;;;;;0.13;100.00;102446.77;1750813;81;21119;-48
2020/12/21 01:58:47;;;;;;;1.98;0.40;;;;;;;0.12;100.00;102451.78;1750789;80;21737;-48
2020/12/21 02:01:17;;;;;;;0.10;0.10;;;;;;;0.12;100.00;102442.88;1717448;83;21576;-48
2020/12/21 02:03:45;;;;;;;0.10;0.10;;;;;;;0.15;100.00;102449.30;1697761;83;21261;-49
2020/12/21 02:06:12;;;;;;;0.37;0.35;;;;;;;0.16;100.00;102440.22;1768388;79;21122;-49
2020/12/21 02:08:40;;;;;;;0.03;0.03;;;;;;;0.15;100.00;102439.89;1750768;81;21106;-48
2020/12/21 02:11:08;;;;;;;0.65;0.65;;;;;;;0.14;100.00;102444.91;1724289;83;21130;-48
2020/12/21 02:13:35;;;;;;;0.10;0.10;;;;;;;0.14;100.00;102448.43;1732533;81;21150;-47
2020/12/21 02:16:03;;;;;;;0.10;0.10;;;;;;;0.13;100.00;102447.27;1732455;82;21249;-49
2020/12/21 02:18:31;;;;;;;0.35;0.35;;;;;;;0.12;100.00;102449.09;1732658;81;21122;-50
2020/12/21 02:20:58;;;;;;;0.82;0.82;;;;;;;0.11;100.00;102449.27;1732624;82;21111;-47
2020/12/21 02:23:26;;;;;;;0.30;0.30;;;;;;;0.10;100.00;102454.29;1733726;81;21098;-47
2020/12/21 02:25:54;;;;;;;0.98;0.62;;;;;;;0.10;100.00;102452.94;1732614;82;21082;-49
2020/12/21 02:28:21;;;;;;;0.30;0.30;;;;;;;0.10;100.00;102450.25;1732475;82;20999;-49
2020/12/21 02:30:49;;;;;;;0.00;0.00;;;;;;;0.10;100.00;102443.53;1732350;81;21142;-48
2020/12/21 02:33:16;;;;;;;0.00;0.00;;;;;;;0.11;100.00;102449.27;1727131;83;21130;-48
2020/12/21 02:35:44;;;;;;;0.00;0.00;;;;;;;0.12;100.00;102448.25;1727114;81;21539;-47
2020/12/21 02:38:11;;;;;;;0.10;0.10;;;;;;;0.11;100.00;102447.92;1727058;82;22122;-48
2020/12/21 02:40:41;;;;;;;0.10;0.10;;;;;;;0.09;100.00;102445.89;1727887;81;21190;-47
2020/12/21 02:43:10;;;;;;;0.33;0.33;;;;;;;0.07;100.00;102450.58;1725671;83;21609;-47
2020/12/21 02:45:37;;;;;;;0.40;0.40;;;;;;;0.06;100.00;102452.95;1727368;81;21123;-49
2020/12/21 02:48:04;;;;;;;0.10;0.10;;;;;;;0.04;100.00;102457.63;1727072;83;21545;-48
2020/12/21 02:50:32;;;;;;;0.42;0.42;;;;;;;0.03;100.00;102458.65;1727228;81;21126;-50
2020/12/21 02:53:00;;;;;;;1.22;0.65;;;;;;;0.01;100.00;102456.62;1727044;83;21154;-48
2020/12/21 02:55:27;;;;;;;0.10;0.10;;;;;;;-0.01;100.00;102458.95;1727048;81;21146;-49
2020/12/21 02:57:54;;;;;;;0.10;0.10;;;;;;;0.02;100.00;102455.60;1727955;81;21138;-47
2020/12/21 03:00:22;;;;;;;0.42;0.42;;;;;;;0.02;100.00;102455.09;1727381;81;21117;-48
2020/12/21 03:02:49;;;;;;;0.00;0.00;;;;;;;0.04;100.00;102446.88;1727282;82;21138;-49
2020/12/21 03:05:18;;;;;;;0.10;0.10;;;;;;;0.04;100.00;102456.30;1727141;81;21166;-49
2020/12/21 03:07:45;;;;;;;0.00;0.00;;;;;;;0.04;100.00;102457.63;1727143;82;21137;-48
2020/12/21 03:10:13;;;;;;;0.28;0.28;;;;;;;0.05;100.00;102456.62;1727279;81;21130;-49
2020/12/21 03:12:42;;;;;;;0.17;0.17;;;;;;;0.03;100.00;102457.31;1727194;83;22004;-48
2020/12/21 03:15:09;;;;;;;0.72;0.72;;;;;;;0.04;100.00;102460.33;1727966;81;21169;-49
2020/12/21 03:17:37;;;;;;;0.10;0.10;;;;;;;0.02;100.00;102460.98;1727187;82;21162;-48
2020/12/21 03:20:05;;;;;;;1.27;1.17;;;;;;;-0.01;100.00;102456.26;1727376;81;21125;-47
2020/12/21 03:22:32;;;;;;;0.33;0.20;;;;;;;-0.02;100.00;102461.31;1727314;82;21138;-48
2020/12/21 03:25:00;;;;;;;0.05;0.05;;;;;;;-0.04;100.00;102464.65;1727338;82;21164;-47
2020/12/21 03:27:29;;;;;;;0.23;0.23;;;;;;;-0.06;100.00;102462.62;1727269;83;21149;-49
2020/12/21 03:29:57;;;;;;;0.10;0.10;;;;;;;-0.07;100.00;102466.83;1727269;83;21512;-47
2020/12/21 03:32:24;;;;;;;0.68;0.68;;;;;;;-0.07;100.00;102466.32;1754618;80;21111;-48
2020/12/21 03:34:55;;;;;;;0.50;0.50;;;;;;;-0.06;100.00;102466.65;1767268;81;21143;-47
2020/12/21 03:37:22;;;;;;;3.58;0.75;;;;;;;-0.05;100.00;102467.02;1767369;81;21162;-48
2020/12/21 03:39:49;;;;;;;0.10;0.10;;;;;;;-0.05;100.00;102472.39;1767393;81;21039;-48
2020/12/21 03:42:17;;;;;;;1.02;0.45;;;;;;;-0.07;100.00;102473.05;1767330;81;21107;-47
2020/12/21 03:44:44;;;;;;;1.17;1.07;;;;;;;-0.05;100.00;102471.05;1767173;81;21130;-49
2020/12/21 03:47:12;;;;;;;0.00;0.00;;;;;;;-0.05;100.00;102471.05;1767389;81;21567;-47
2020/12/21 03:49:39;;;;;;;0.00;0.00;;;;;;;-0.06;100.00;102472.03;1766544;81;21106;-47
2020/12/21 03:52:07;;;;;;;0.95;0.95;;;;;;;-0.05;100.00;102471.05;1736372;82;21196;-48
2020/12/21 03:54:34;;;;;;;0.10;0.10;;;;;;;-0.05;100.00;102473.73;1706854;84;21165;-48
2020/12/21 03:57:01;;;;;;;0.47;0.25;;;;;;;-0.04;100.00;102472.72;1706812;84;21105;-48
2020/12/21 03:59:29;;;;;;;0.20;0.20;;;;;;;-0.03;100.00;102469.02;1738638;81;21163;-49
2020/12/21 04:01:56;;;;;;;0.30;0.30;;;;;;;-0.04;100.00;102464.65;1711489;83;21156;-49
2020/12/21 04:04:24;;;;;;;0.40;0.40;;;;;;;-0.05;100.00;102457.60;1711518;82;21168;-48
2020/12/21 04:06:52;;;;;;;0.00;0.00;;;;;;;-0.04;100.00;102455.24;1741502;81;21153;-48
2020/12/21 04:09:19;;;;;;;0.00;0.00;;;;;;;-0.02;100.00;102459.12;1741201;81;21157;-47
2020/12/21 04:11:47;;;;;;;0.47;0.47;;;;;;;0.01;100.00;102457.97;1741082;82;21563;-48
2020/12/21 04:14:14;;;;;;;2.22;1.25;;;;;;;0.01;100.00;102464.17;1741128;81;21114;-49
2020/12/21 04:16:42;;;;;;;0.25;0.25;;;;;;;-0.01;100.00;102452.23;1741129;82;21173;-48
2020/12/21 04:19:09;;;;;;;1.07;0.68;;;;;;;0.02;100.00;102454.26;1740978;81;21118;-47
2020/12/21 04:21:37;;;;;;;0.25;0.25;;;;;;;0.02;100.00;102452.41;1742497;81;21219;-49
2020/12/21 04:24:05;;;;;;;0.10;0.10;;;;;;;0.04;100.00;102456.30;1747961;81;21180;-48
2020/12/21 04:26:32;;;;;;;0.80;0.65;;;;;;;0.07;100.00;102455.96;1717909;82;21137;-50
2020/12/21 04:28:59;;;;;;;0.40;0.40;;;;;;;0.09;100.00;102457.99;1719299;82;21170;-50
2020/12/21 04:31:27;;;;;;;0.10;0.10;;;;;;;0.10;100.00;102456.98;1739030;82;21141;-50
2020/12/21 04:33:54;;;;;;;0.25;0.25;;;;;;;0.09;100.00;102460.17;1740768;82;21220;-50
2020/12/21 04:36:22;;;;;;;0.40;0.37;;;;;;;0.10;100.00;102457.84;1741049;82;21465;-49
2020/12/21 04:38:53;;;;;;;0.10;0.10;;;;;;;0.10;100.00;102456.98;1744617;81;21121;-49
2020/12/21 04:41:18;;;;;;;0.00;0.00;;;;;;;0.09;100.00;102458.83;1767399;81;22335;-48
2020/12/21 04:43:46;;;;;;;0.40;0.40;;;;;;;0.08;100.00;102459.84;1767234;81;21249;-49
2020/12/21 04:46:13;;;;;;;0.10;0.10;;;;;;;0.07;100.00;102454.62;1736315;82;21394;-49
2020/12/21 04:48:44;;;;;;;4.58;0.75;;;;;;;0.08;100.00;102464.39;1744710;81;21589;-49
2020/12/21 04:51:12;;;;;;;0.30;0.30;;;;;;;0.08;100.00;102464.39;1711415;83;21139;-50
2020/12/21 04:53:39;;;;;;;0.90;0.45;;;;;;;0.06;100.00;102465.05;1679616;84;21188;-51
2020/12/21 04:56:07;;;;;;;0.10;0.10;;;;;;;0.04;100.00;102457.63;1680669;84;21195;-48
2020/12/21 04:58:35;;;;;;;0.42;0.30;;;;;;;0.01;100.00;102450.73;1711540;82;21159;-50
2020/12/21 05:01:02;;;;;;;2.85;0.50;;;;;;;0.00;100.00;102455.78;1711495;83;21415;-49
2020/12/21 05:03:30;;;;;;;0.88;0.88;;;;;;;0.01;100.00;102456.62;1711480;82;21176;-48
2020/12/21 05:06:07;;;;;;;1.25;1.17;;;;;;;0.03;100.00;102458.65;1679657;85;21156;-50
2020/12/21 05:08:34;;;;;;;0.47;0.47;;;;;;;0.01;100.00;102460.65;1679116;84;21199;-49
2020/12/21 05:11:04;;;;;;;0.25;0.25;;;;;;;0.00;100.00;102462.50;1679485;85;21191;-50
2020/12/21 05:13:33;;;;;;;1.15;1.15;;;;;;;0.00;100.00;102466.53;1680468;84;21586;-50
2020/12/21 05:16:01;;;;;;;1.45;1.02;;;;;;;0.00;100.00;102457.13;1673459;85;21444;-50
2020/12/21 05:18:34;;;;;;;3.25;1.25;;;;;;;-0.03;100.00;102462.29;1665316;85;21237;-49
2020/12/21 05:21:05;;;;;;;0.00;0.00;;;;;;;-0.05;100.00;102479.11;1741129;82;26277;-50
2020/12/21 05:23:33;;;;;;;0.57;0.57;;;;;;;-0.10;100.00;102506.97;1740822;82;21146;-50
2020/12/21 05:26:08;;;;;;;0.05;0.05;;;;;;;-0.18;100.00;102508.23;1721470;82;21130;-49
2020/12/21 05:28:37;;;;;;;1.25;0.72;;;;;;;-0.24;100.00;102494.94;1736496;82;21201;-51
2020/12/21 05:31:10;;;;;;;0.90;0.90;;;;;;;-0.23;100.00;102503.84;1697326;84;21582;-49
2020/12/21 05:33:44;;;;;;;0.25;0.25;;;;;;;-0.26;100.00;102514.40;1712059;82;21151;-51
2020/12/21 05:36:14;;;;;;;1.35;0.90;;;;;;;-0.28;100.00;102498.09;1724408;83;21121;-48
2020/12/21 05:38:43;;;;;;;0.00;0.00;;;;;;;-0.30;100.00;102516.20;1721808;81;21193;-49
2020/12/21 05:41:17;;;;;;;0.20;0.20;;;;;;;-0.31;100.00;102513.19;1724515;83;21158;-50
2020/12/21 05:43:47;;;;;;;0.85;0.85;;;;;;;-0.31;100.00;102515.38;1724172;81;21308;-50
2020/12/21 05:46:23;;;;;;;0.45;0.45;;;;;;;-0.31;100.00;102513.19;1724273;83;21170;-51
2020/12/21 05:48:53;;;;;;;1.15;1.15;;;;;;;-0.32;100.00;102510.14;1724478;81;21155;-49
2020/12/21 05:51:34;;;;;;;0.53;0.53;;;;;;;-0.31;100.00;102518.56;1724216;83;21413;-50
2020/12/21 05:54:04;;;;;;;0.75;0.50;;;;;;;-0.32;100.00;102512.35;1724021;81;21651;-49
2020/12/21 05:56:33;;;;;;;2.60;0.72;;;;;;;-0.32;100.00;102526.27;1732411;81;21584;-50
2020/12/21 05:59:01;;;;;;;1.17;0.47;;;;;;;-0.35;100.00;102519.36;1732201;81;21185;-50
2020/12/21 06:01:28;;;;;;;0.33;0.33;;;;;;;-0.37;100.00;102525.41;1732170;82;21154;-49
2020/12/21 06:04:02;;;;;;;1.95;0.78;;;;;;;-0.38;100.00;102524.22;1733161;81;21158;-50
2020/12/21 06:06:33;;;;;;;0.13;0.13;;;;;;;-0.39;100.00;102528.75;1731586;82;21158;-49
2020/12/21 06:09:02;;;;;;;0.30;0.28;;;;;;;-0.44;100.00;102520.32;1732534;81;21588;-50
2020/12/21 06:11:31;;;;;;;1.62;1.52;;;;;;;-0.47;100.00;102522.82;1730527;81;21033;-49
2020/12/21 06:14:13;;;;;;;0.30;0.30;;;;;;;-0.48;100.00;102531.02;1751166;81;21155;-49
2020/12/21 06:16:42;;;;;;;0.05;0.05;;;;;;;-0.51;100.00;102529.49;1750465;81;21486;-49
2020/12/21 06:19:24;;;;;;;0.15;0.15;;;;;;;-0.53;100.00;102540.05;1723022;81;21149;-49
2020/12/21 06:21:53;;;;;;;0.53;0.53;;;;;;;-0.57;100.00;102531.47;1694563;83;21168;-49
2020/12/21 06:24:23;;;;;;;0.75;0.75;;;;;;;-0.59;100.00;102535.28;1716668;82;21195;-49
2020/12/21 06:26:55;;;;;;;2.40;0.70;;;;;;;-0.62;100.00;102546.34;1716873;83;33219;-49
2020/12/21 06:29:24;;;;;;;0.42;0.42;;;;;;;-0.68;100.00;102537.06;1749769;81;21166;-50
2020/12/21 06:31:57;;;;;;;1.62;1.02;;;;;;;-0.68;100.00;102546.46;1723190;83;21137;-50
2020/12/21 06:34:35;;;;;;;2.35;0.40;;;;;;;-0.68;100.00;102542.44;1695052;83;21608;-50
2020/12/21 06:37:16;;;;;;;0.00;0.00;;;;;;;-0.70;100.00;102538.55;1716202;83;21143;-48
2020/12/21 06:39:43;;;;;;;0.10;0.10;;;;;;;-0.70;100.00;102549.79;1708058;83;21150;-51
2020/12/21 06:42:17;;;;;;;0.98;0.57;;;;;;;-0.69;100.00;102536.73;1712491;82;21098;-49
2020/12/21 06:44:45;;;;;;;0.80;0.40;;;;;;;-0.70;100.00;102541.23;1720242;83;21129;-49
2020/12/21 06:47:12;;;;;;;3.27;2.15;;;;;;;-0.67;100.00;102546.32;1721118;82;21145;-49
2020/12/21 06:49:41;;;;;;;0.93;0.90;;;;;;;-0.68;100.00;102541.93;1731785;82;21121;-50
2020/12/21 06:52:11;;;;;;;1.95;1.77;;;;;;;-0.66;100.00;102545.81;1732509;82;21488;-50
2020/12/21 06:54:38;;;;;;;2.08;1.95;;;;;;;-0.67;100.00;102546.79;1776112;78;21115;-49
2020/12/21 06:57:05;;;;;;;0.30;0.30;;;;;;;-0.67;100.00;102544.98;1776431;80;21567;-50
2020/12/21 06:59:33;;;;;;;0.53;0.45;;;;;;;-0.66;100.00;102551.19;1785837;80;21118;-49
2020/12/21 07:02:00;;;;;;;1.87;0.93;;;;;;;-0.67;100.00;102546.32;1785611;80;21564;-50
2020/12/21 07:04:30;;;;;;;2.52;1.00;;;;;;;-0.66;100.00;102548.50;1775034;80;21137;-49
2020/12/21 07:06:59;;;;;;;0.70;0.45;;;;;;;-0.66;100.00;102549.84;1719635;83;21457;-49
2020/12/21 07:09:33;;;;;;;0.20;0.20;;;;;;;-0.66;100.00;102552.53;1655367;85;21150;-50
2020/12/21 07:12:05;;;;;;;1.15;0.75;;;;;;;-0.65;100.00;102551.02;1767289;80;21129;-49
2020/12/21 07:14:37;;;;;;;;;;;;;;;-0.66;100.00;102557.90;1785702;80;21594;-50
2020/12/21 07:17:07;;;;;;;1.30;0.40;;;;;;;-0.67;100.00;102552.16;1786295;80;20264;-49
2020/12/21 07:19:36;;;;;;;1.12;0.80;;;;;;;-0.68;100.00;102549.98;1785672;78;21146;-51
2020/12/21 07:22:05;;;;;;;3.42;0.95;;;;;;;-0.67;100.00;102554.38;1785867;80;21134;-50
2020/12/21 07:24:35;;;;;;;0.35;0.35;;;;;;;-0.65;100.00;102550.17;1777863;78;21593;-49
2020/12/21 07:27:03;;;;;;;1.55;0.65;;;;;;;-0.63;100.00;102548.69;1719923;82;21128;-50
2020/12/21 07:29:36;;;;;;;1.55;1.45;;;;;;;-0.62;100.00;102540.97;1715331;82;21173;-49
2020/12/21 07:32:05;;;;;;;1.57;0.55;;;;;;;-0.60;100.00;102542.50;1785756;80;21121;-50
2020/12/21 07:34:33;;;;;;;1.65;1.00;;;;;;;-0.59;100.00;102541.52;1786419;78;21182;-48
2020/12/21 07:37:10;;;;;;;0.10;0.10;;;;;;;-0.56;100.00;102538.52;1785586;80;21130;-49
2020/12/21 07:39:38;;;;;;;0.30;0.30;;;;;;;-0.50;100.00;102534.36;1781858;78;20987;-49
2020/12/21 07:42:08;;;;;;;0.72;0.72;;;;;;;-0.46;100.00;102526.34;1788569;80;21721;-49
2020/12/21 07:44:37;;;;;;;0.30;0.30;;;;;;;-0.42;100.00;102532.23;1786147;78;21505;-49
2020/12/21 07:47:18;;;;;;;3.72;0.60;;;;;;;-0.38;100.00;102524.22;1788417;78;21114;-49
2020/12/21 07:49:46;;;;;;;0.53;0.53;;;;;;;-0.35;100.00;102528.77;1783006;80;21453;-49
2020/12/21 07:52:14;;;;;;;0.80;0.70;;;;;;;-0.32;100.00;102532.98;1781949;80;21580;-50
2020/12/21 07:54:43;;;;;;;0.35;0.33;;;;;;;-0.32;100.00;102527.61;1779353;78;21492;-49
2020/12/21 07:57:13;;;;;;;1.15;1.05;;;;;;;-0.31;100.00;102537.38;1689599;82;21169;-50
2020/12/21 07:59:40;;;;;;;0.00;0.00;;;;;;;-0.27;100.00;102539.59;1746518;80;21142;-48
2020/12/21 08:02:09;;;;;;;0.57;0.57;;;;;;;-0.25;100.00;102538.08;1719152;83;21563;-49
2020/12/21 08:04:36;;;;;;;0.20;0.20;;;;;;;-0.24;100.00;102545.98;1695672;83;21147;-49
2020/12/21 08:07:10;;;;;;;0.05;0.05;;;;;;;-0.22;100.00;102541.81;1706878;83;21146;-49
2020/12/21 08:09:38;;;;;;;0.10;0.10;;;;;;;-0.24;100.00;102545.16;1716831;83;21146;-49
2020/12/21 08:12:14;;;;;;;0.62;0.62;;;;;;;-0.23;100.00;102543.63;1715252;81;21201;-50
2020/12/21 08:14:44;;;;;;;0.30;0.30;;;;;;;-0.19;100.00;102548.21;1718874;81;21165;-50
2020/12/21 08:17:16;;;;;;;0.10;0.10;;;;;;;-0.16;100.00;102547.89;1748766;81;21174;-51
2020/12/21 08:19:54;;;;;;;;;;;;;;;-0.13;100.00;102548.91;1698487;83;21184;-49
2020/12/21 08:22:22;;;;;;;0.00;0.00;;;;;;;-0.08;100.00;102550.62;1719394;82;20258;-50
2020/12/21 08:25:12;;;;;;;0.62;0.60;;;;;;;-0.06;100.00;102548.63;1737856;82;21132;-49
2020/12/21 08:27:42;;;;;;;4.12;0.72;;;;;;;-0.03;100.00;102556.88;1728194;82;21129;-49
2020/12/21 08:30:14;;;;;;;0.30;0.30;;;;;;;-0.01;100.00;102554.88;1737223;82;21098;-50
2020/12/21 08:32:42;;;;;;;0.90;0.90;;;;;;;0.02;100.00;102551.87;1703096;84;21528;-49
2020/12/21 08:35:10;;;;;;;0.20;0.20;;;;;;;0.01;100.00;102552.05;1707479;83;21126;-51
2020/12/21 08:37:38;;;;;;;0.05;0.05;;;;;;;-0.08;100.00;102549.28;1726831;82;21145;-49
2020/12/21 08:40:15;;;;;;;0.10;0.10;;;;;;;-0.19;100.00;102548.21;1725721;81;21536;-49
2020/12/21 08:42:47;;;;;;;0.78;0.78;;;;;;;-0.27;100.00;102554.38;1725974;82;21201;-51
2020/12/21 08:45:20;;;;;;;0.15;0.15;;;;;;;-0.28;100.00;102551.32;1718477;81;21151;-50
2020/12/21 08:47:48;;;;;;;2.52;0.30;;;;;;;-0.28;100.00;102541.92;1711678;83;21131;-51
2020/12/21 08:50:17;;;;;;;0.10;0.10;;;;;;;-0.28;100.00;102540.58;1726023;83;21126;-50
2020/12/21 08:52:49;;;;;;;2.25;0.68;;;;;;;-0.27;100.00;102544.13;1710091;83;21173;-49
2020/12/21 08:55:17;;;;;;;0.20;0.20;;;;;;;-0.25;100.00;102539.42;1723953;82;21577;-49
2020/12/21 08:57:45;;;;;;;0.40;0.40;;;;;;;-0.27;100.00;102532.04;1719537;82;21472;-49
2020/12/21 09:00:12;;;;;;;0.47;0.47;;;;;;;-0.29;100.00;102538.06;1702060;83;21106;-50
2020/12/21 09:02:40;;;;;;;0.40;0.40;;;;;;;-0.31;100.00;102530.66;1724583;83;21187;-51
2020/12/21 09:05:08;;;;;;;0.80;0.80;;;;;;;-0.35;100.00;102526.58;1706096;83;21510;-49
2020/12/21 09:07:36;;;;;;;1.80;0.98;;;;;;;-0.40;100.00;102522.19;1675407;85;22039;-52
2020/12/21 09:10:04;;;;;;;0.00;0.00;;;;;;;-0.40;100.00;102518.16;1677047;85;21544;-49
2020/12/21 09:12:33;;;;;;;0.00;0.00;;;;;;;-0.42;100.00;102518.33;1733928;82;21533;-51
2020/12/21 09:15:02;;;;;;;2.52;0.82;;;;;;;-0.46;99.77;102513.75;1738683;82;21142;-49
2020/12/21 09:17:29;;;;;;;0.98;0.98;;;;;;;-0.47;99.82;102516.58;1730941;81;21165;-48
2020/12/21 09:19:57;;;;;;;0.15;0.15;;;;;;;-0.49;99.75;102514.06;1697636;83;21625;-49
2020/12/21 09:22:26;;;;;;;3.15;2.87;;;;;;;-0.47;99.71;102517.45;1704880;84;21099;-49
2020/12/21 09:24:54;;;;;;;0.10;0.10;;;;;;;-0.47;99.56;102516.58;1732725;81;21159;-49
2020/12/21 09:27:21;;;;;;;0.10;0.10;;;;;;;-0.46;99.51;102521.81;1732905;82;21533;-49
2020/12/21 09:29:48;;;;;;;0.55;0.15;;;;;;;-0.47;99.29;102517.45;1732086;82;21138;-49
2020/12/21 09:32:16;;;;;;;0.10;0.10;;;;;;;-0.51;99.11;102526.80;1739617;82;21133;-49
2020/12/21 09:34:43;;;;;;;0.17;0.17;;;;;;;-0.54;98.89;102527.12;1724128;82;21661;-49
2020/12/21 09:37:12;;;;;;;0.00;0.00;;;;;;;-0.58;98.75;102524.90;1727157;82;21102;-49
2020/12/21 09:39:40;;;;;;;0.42;0.20;;;;;;;-0.60;98.80;102530.41;1769446;80;21148;-49
2020/12/21 09:42:07;;;;;;;2.10;0.42;;;;;;;-0.62;98.64;102527.03;1787191;80;21134;-48
2020/12/21 09:44:36;;;;;;;0.10;0.10;;;;;;;-0.64;98.70;102518.31;1787246;80;21137;-49
2020/12/21 09:47:03;;;;;;;0.25;0.25;;;;;;;-0.64;98.66;102521.00;1755686;81;21138;-49
2020/12/21 09:49:30;;;;;;;0.00;0.00;;;;;;;-0.66;98.07;102521.14;1727415;82;21119;-49
2020/12/21 09:51:58;;;;;;;0.10;0.10;;;;;;;-0.73;97.56;102516.55;1725732;83;21129;-49
2020/12/21 09:54:26;;;;;;;0.10;0.10;;;;;;;-0.79;97.35;102518.48;1727319;82;21229;-50
2020/12/21 09:56:53;;;;;;;0.00;0.00;;;;;;;-0.84;97.44;102514.95;1727489;83;21620;-49
2020/12/21 09:59:21;;;;;;;0.10;0.10;;;;;;;-0.85;97.42;102513.24;1727468;82;21525;-48
2020/12/21 10:01:50;;;;;;;0.00;0.00;;;;;;;-0.87;97.25;102516.09;1743675;82;21112;-48
2020/12/21 10:04:17;;;;;;;0.00;0.00;;;;;;;-0.87;97.40;102517.44;1727402;83;21557;-48
2020/12/21 10:06:50;;;;;;;0.30;0.30;;;;;;;-0.88;97.36;102511.70;1721352;82;21605;-49
2020/12/21 10:09:19;;;;;;;0.03;0.03;;;;;;;-0.89;97.15;102507.83;1725600;82;21153;-49
2020/12/21 10:11:53;;;;;;;0.47;0.47;;;;;;;-0.91;97.06;102514.70;1729852;81;21593;-49
2020/12/21 10:14:20;;;;;;;0.00;0.00;;;;;;;-0.94;96.89;102520.39;1729609;81;21193;-49
2020/12/21 10:16:53;;;;;;;0.00;0.00;;;;;;;-0.98;96.60;102523.53;1727339;83;21154;-50
2020/12/21 10:19:20;;;;;;;0.30;0.30;;;;;;;-1.00;96.67;102522.83;1727469;83;21628;-49
2020/12/21 10:21:48;;;;;;;0.00;0.00;;;;;;;-1.01;96.69;102526.02;1727367;83;21166;-50
2020/12/21 10:24:15;;;;;;;0.10;0.10;;;;;;;-1.01;96.72;102523.84;1727431;83;21159;-50
2020/12/21 10:26:43;;;;;;;0.00;0.00;;;;;;;-1.00;96.78;102523.66;1758315;81;21110;-49
2020/12/21 10:29:10;;;;;;;0.40;0.40;;;;;;;-1.02;96.28;102521.63;1758879;81;21450;-48
2020/12/21 10:31:38;;;;;;;0.90;0.47;;;;;;;-1.10;95.55;102518.87;1756943;81;21135;-51
2020/12/21 10:34:05;;;;;;;0.00;0.00;;;;;;;-1.13;95.96;102523.20;1758044;81;21206;-49
2020/12/21 10:36:33;;;;;;;1.12;0.93;;;;;;;-1.14;96.20;102521.50;1756099;81;21193;-50
2020/12/21 10:39:00;;;;;;;0.10;0.10;;;;;;;-1.12;96.37;102523.53;1755809;81;21223;-48
2020/12/21 10:41:32;;;;;;;0.10;0.10;;;;;;;-1.14;96.15;102521.02;1729425;81;21162;-49
2020/12/21 10:44:00;;;;;;;0.42;0.42;;;;;;;-1.18;96.19;102520.97;1724372;83;21293;-50
2020/12/21 10:46:28;;;;;;;0.10;0.10;;;;;;;-1.19;95.99;102515.74;1744879;81;21119;-49
2020/12/21 10:48:55;;;;;;;0.03;0.03;;;;;;;-1.24;95.95;102518.04;1755661;81;21206;-51
2020/12/21 10:51:28;;;;;;;0.55;0.55;;;;;;;-1.25;96.06;102524.41;1756071;81;21139;-49
2020/12/21 10:53:55;;;;;;;;;;;;;;;-1.26;96.01;102520.02;1744563;81;21146;-49
2020/12/21 10:56:23;;;;;;;0.25;0.25;;;;;;;-1.28;95.84;102515.33;1724696;83;20604;-49
2020/12/21 10:58:51;;;;;;;0.15;0.15;;;;;;;-1.32;96.02;102514.27;1724453;83;21150;-49
2020/12/21 11:01:18;;;;;;;0.20;0.20;;;;;;;-1.35;95.98;102511.89;1724564;82;21554;-51
2020/12/21 11:03:46;;;;;;;1.27;1.17;;;;;;;-1.37;95.97;102507.17;1727487;81;21233;-49
2020/12/21 11:06:24;;;;;;;0.80;0.35;;;;;;;-1.41;95.05;102515.66;1741656;81;21150;-49
2020/12/21 11:08:53;;;;;;;0.93;0.93;;;;;;;-1.46;94.87;102513.42;1742164;81;21192;-49
2020/12/21 11:11:27;;;;;;;0.35;0.35;;;;;;;-1.46;95.44;102512.08;1723027;83;21147;-50
2020/12/21 11:13:55;;;;;;;0.10;0.10;;;;;;;-1.43;95.67;102505.11;1748125;81;21186;-48
2020/12/21 11:16:22;;;;;;;0.20;0.20;;;;;;;-1.43;95.63;102509.63;1754275;80;21474;-48
2020/12/21 11:18:50;;;;;;;0.20;0.20;;;;;;;-1.43;95.38;102513.16;1732850;80;21438;-49
2020/12/21 11:21:18;;;;;;;0.55;0.55;;;;;;;-1.45;95.36;102507.59;1755103;80;21142;-48
2020/12/21 11:23:47;;;;;;;0.15;0.15;;;;;;;-1.52;94.71;102512.19;1775493;80;21271;-49
2020/12/21 11:26:15;;;;;;;0.20;0.20;;;;;;;-1.55;94.87;102508.98;1784034;79;21162;-48
2020/12/21 11:28:43;;;;;;;0.20;0.20;;;;;;;-1.58;94.89;102503.42;1716798;81;21799;-49
2020/12/21 11:31:16;;;;;;;0.13;0.13;;;;;;;-1.62;94.44;102510.06;1733154;81;21137;-50